sensor_id;sensor_type;location;lat;lon;timestamp;pressure;altitude;pressure_sealevel;temperature;humidity
9462;BME280;4769;42.660;23.262;2023-08-20T00:00:06;94262.88;;;23.74;63.39
9462;BME280;4769;42.660;23.262;2023-08-20T00:02:33;94254.34;;;23.73;63.04
9462;BME280;4769;42.660;23.262;2023-08-20T00:05:04;94256.38;;;23.75;63.33
9462;BME280;4769;42.660;23.262;2023-08-20T00:07:31;94251.31;;;23.74;63.47
9462;BME280;4769;42.660;23.262;2023-08-20T00:09:57;94263.19;;;23.81;63.61
9462;BME280;4769;42.660;23.262;2023-08-20T00:12:22;94247.03;;;23.81;63.44
9462;BME280;4769;42.660;23.262;2023-08-20T00:14:52;94253.38;;;23.77;63.39
9462;BME280;4769;42.660;23.262;2023-08-20T00:17:18;94246.25;;;23.73;63.19
9462;BME280;4769;42.660;23.262;2023-08-20T00:19:44;94249.59;;;23.69;63.13
9462;BME280;4769;42.660;23.262;2023-08-20T00:22:13;94246.75;;;23.66;63.64
9462;BME280;4769;42.660;23.262;2023-08-20T00:24:40;94255.59;;;23.75;63.33
9462;BME280;4769;42.660;23.262;2023-08-20T00:27:06;94255.75;;;23.70;63.80
9462;BME280;4769;42.660;23.262;2023-08-20T00:29:32;94257.19;;;23.76;63.61
9462;BME280;4769;42.660;23.262;2023-08-20T00:31:57;94256.34;;;23.84;63.48
9462;BME280;4769;42.660;23.262;2023-08-20T00:34:23;94238.94;;;23.81;63.62
9462;BME280;4769;42.660;23.262;2023-08-20T00:36:49;94251.47;;;23.95;63.13
9462;BME280;4769;42.660;23.262;2023-08-20T00:39:17;94256.41;;;23.93;63.67
9462;BME280;4769;42.660;23.262;2023-08-20T00:41:43;94243.25;;;23.65;64.40
9462;BME280;4769;42.660;23.262;2023-08-20T00:44:09;94254.66;;;23.71;64.19
9462;BME280;4769;42.660;23.262;2023-08-20T00:46:34;94246.41;;;23.67;64.42
9462;BME280;4769;42.660;23.262;2023-08-20T00:49:00;94250.22;;;23.66;64.23
9462;BME280;4769;42.660;23.262;2023-08-20T00:51:26;94259.56;;;23.69;64.54
9462;BME280;4769;42.660;23.262;2023-08-20T00:53:51;94258.13;;;23.71;64.75
9462;BME280;4769;42.660;23.262;2023-08-20T00:56:20;94261.31;;;23.73;64.49
9462;BME280;4769;42.660;23.262;2023-08-20T00:58:46;94260.19;;;23.66;64.62
9462;BME280;4769;42.660;23.262;2023-08-20T01:01:12;94249.91;;;23.59;64.85
9462;BME280;4769;42.660;23.262;2023-08-20T01:03:37;94250.38;;;23.61;65.11
9462;BME280;4769;42.660;23.262;2023-08-20T01:06:16;94260.66;;;23.68;65.02
9462;BME280;4769;42.660;23.262;2023-08-20T01:08:47;94251.97;;;23.71;65.33
9462;BME280;4769;42.660;23.262;2023-08-20T01:11:24;94253.03;;;23.70;65.21
9462;BME280;4769;42.660;23.262;2023-08-20T01:13:54;94255.44;;;23.80;64.59
9462;BME280;4769;42.660;23.262;2023-08-20T01:16:20;94251.47;;;23.60;64.62
9462;BME280;4769;42.660;23.262;2023-08-20T01:18:47;94246.56;;;23.62;64.68
9462;BME280;4769;42.660;23.262;2023-08-20T01:21:29;94257.31;;;23.62;65.14
9462;BME280;4769;42.660;23.262;2023-08-20T01:24:10;94255.91;;;23.56;65.60
9462;BME280;4769;42.660;23.262;2023-08-20T01:26:59;94249.13;;;23.50;66.21
9462;BME280;4769;42.660;23.262;2023-08-20T01:29:28;94244.34;;;23.47;66.57
9462;BME280;4769;42.660;23.262;2023-08-20T01:31:54;94254.19;;;23.60;65.85
9462;BME280;4769;42.660;23.262;2023-08-20T01:34:21;94245.94;;;23.57;65.99
9462;BME280;4769;42.660;23.262;2023-08-20T01:36:46;94245.94;;;23.57;66.25
9462;BME280;4769;42.660;23.262;2023-08-20T01:39:12;94250.38;;;23.53;66.55
9462;BME280;4769;42.660;23.262;2023-08-20T01:41:38;94242.31;;;23.53;66.12
9462;BME280;4769;42.660;23.262;2023-08-20T01:44:04;94245.94;;;23.57;65.96
9462;BME280;4769;42.660;23.262;2023-08-20T01:46:32;94241.19;;;23.54;65.42
9462;BME280;4769;42.660;23.262;2023-08-20T01:48:58;94237.41;;;23.46;65.85
9462;BME280;4769;42.660;23.262;2023-08-20T01:51:24;94242.28;;;23.44;66.22
9462;BME280;4769;42.660;23.262;2023-08-20T01:53:49;94243.25;;;23.40;66.05
9462;BME280;4769;42.660;23.262;2023-08-20T01:56:15;94237.22;;;23.34;65.81
9462;BME280;4769;42.660;23.262;2023-08-20T01:58:41;94248.63;;;23.31;66.20
9462;BME280;4769;42.660;23.262;2023-08-20T02:01:06;94220.88;;;23.14;66.55
9462;BME280;4769;42.660;23.262;2023-08-20T02:03:36;94223.63;;;23.22;66.30
9462;BME280;4769;42.660;23.262;2023-08-20T02:06:02;94228.03;;;23.18;66.43
9462;BME280;4769;42.660;23.262;2023-08-20T02:08:28;94218.53;;;23.29;66.01
9462;BME280;4769;42.660;23.262;2023-08-20T02:10:59;94228.69;;;23.32;65.94
9462;BME280;4769;42.660;23.262;2023-08-20T02:13:25;94224.25;;;23.36;65.77
9462;BME280;4769;42.660;23.262;2023-08-20T02:15:57;94217.28;;;23.44;65.90
9462;BME280;4769;42.660;23.262;2023-08-20T02:18:23;94218.56;;;23.46;66.06
9462;BME280;4769;42.660;23.262;2023-08-20T02:20:51;94219.66;;;23.45;66.25
9462;BME280;4769;42.660;23.262;2023-08-20T02:23:17;94224.56;;;23.43;65.85
9462;BME280;4769;42.660;23.262;2023-08-20T02:25:43;94225.38;;;23.44;65.87
9462;BME280;4769;42.660;23.262;2023-08-20T02:28:09;94228.22;;;23.39;66.25
9462;BME280;4769;42.660;23.262;2023-08-20T02:30:40;94224.09;;;23.33;66.20
9462;BME280;4769;42.660;23.262;2023-08-20T02:33:06;94234.22;;;23.27;66.54
9462;BME280;4769;42.660;23.262;2023-08-20T02:35:31;94225.19;;;23.23;66.95
9462;BME280;4769;42.660;23.262;2023-08-20T02:38:00;94217.94;;;23.24;66.47
9462;BME280;4769;42.660;23.262;2023-08-20T02:40:25;94224.88;;;23.25;66.61
9462;BME280;4769;42.660;23.262;2023-08-20T02:42:51;94226.16;;;23.27;66.76
9462;BME280;4769;42.660;23.262;2023-08-20T02:45:17;94228.84;;;23.27;66.41
9462;BME280;4769;42.660;23.262;2023-08-20T02:47:43;94240.22;;;23.24;66.88
9462;BME280;4769;42.660;23.262;2023-08-20T02:50:09;94237.53;;;23.24;66.47
9462;BME280;4769;42.660;23.262;2023-08-20T02:52:34;94239.44;;;23.24;66.60
9462;BME280;4769;42.660;23.262;2023-08-20T02:55:03;94245.44;;;23.21;66.63
9462;BME280;4769;42.660;23.262;2023-08-20T02:57:29;94248.78;;;23.26;66.65
9462;BME280;4769;42.660;23.262;2023-08-20T02:59:55;94243.81;;;23.11;66.71
9462;BME280;4769;42.660;23.262;2023-08-20T03:02:21;94253.00;;;23.10;67.28
9462;BME280;4769;42.660;23.262;2023-08-20T03:04:46;94245.56;;;23.07;67.62
9462;BME280;4769;42.660;23.262;2023-08-20T03:07:12;94243.34;;;23.01;67.93
9462;BME280;4769;42.660;23.262;2023-08-20T03:09:38;94246.94;;;22.88;68.43
9462;BME280;4769;42.660;23.262;2023-08-20T03:12:07;94256.44;;;22.85;68.44
9462;BME280;4769;42.660;23.262;2023-08-20T03:14:33;94255.09;;;22.74;68.25
9462;BME280;4769;42.660;23.262;2023-08-20T03:16:58;94247.38;;;22.73;68.57
9462;BME280;4769;42.660;23.262;2023-08-20T03:19:24;94244.72;;;22.81;68.14
9462;BME280;4769;42.660;23.262;2023-08-20T03:21:50;94233.59;;;22.74;68.42
9462;BME280;4769;42.660;23.262;2023-08-20T03:24:16;94245.19;;;22.83;68.12
9462;BME280;4769;42.660;23.262;2023-08-20T03:26:41;94242.81;;;22.82;68.13
9462;BME280;4769;42.660;23.262;2023-08-20T03:29:10;94240.47;;;22.89;67.98
9462;BME280;4769;42.660;23.262;2023-08-20T03:31:35;94231.28;;;22.90;68.00
9462;BME280;4769;42.660;23.262;2023-08-20T03:34:01;94243.81;;;23.03;67.58
9462;BME280;4769;42.660;23.262;2023-08-20T03:36:27;94237.78;;;22.97;68.89
9462;BME280;4769;42.660;23.262;2023-08-20T03:38:52;94236.59;;;22.64;69.77
9462;BME280;4769;42.660;23.262;2023-08-20T03:41:18;94222.06;;;22.65;70.17
9462;BME280;4769;42.660;23.262;2023-08-20T03:43:44;94237.78;;;22.97;69.48
9462;BME280;4769;42.660;23.262;2023-08-20T03:46:12;94224.78;;;22.82;69.95
9462;BME280;4769;42.660;23.262;2023-08-20T03:48:38;94236.28;;;22.74;70.47
9462;BME280;4769;42.660;23.262;2023-08-20T03:51:03;94233.06;;;22.55;70.62
9462;BME280;4769;42.660;23.262;2023-08-20T03:53:29;94224.28;;;22.72;70.10
9462;BME280;4769;42.660;23.262;2023-08-20T03:55:55;94233.97;;;22.81;69.41
9462;BME280;4769;42.660;23.262;2023-08-20T03:58:20;94227.59;;;22.69;70.07
9462;BME280;4769;42.660;23.262;2023-08-20T04:00:46;94214.31;;;22.72;69.25
9462;BME280;4769;42.660;23.262;2023-08-20T04:03:14;94227.47;;;22.82;69.65
9462;BME280;4769;42.660;23.262;2023-08-20T04:05:40;94225.91;;;22.90;69.37
9462;BME280;4769;42.660;23.262;2023-08-20T04:08:06;94228.78;;;22.93;70.07
9462;BME280;4769;42.660;23.262;2023-08-20T04:10:32;94232.44;;;23.06;70.34
9462;BME280;4769;42.660;23.262;2023-08-20T04:12:58;94220.25;;;23.17;69.42
9462;BME280;4769;42.660;23.262;2023-08-20T04:15:24;94224.38;;;23.23;69.22
9462;BME280;4769;42.660;23.262;2023-08-20T04:17:49;94219.03;;;23.31;68.98
9462;BME280;4769;42.660;23.262;2023-08-20T04:20:18;94229.31;;;23.29;69.25
9462;BME280;4769;42.660;23.262;2023-08-20T04:22:43;94222.34;;;23.28;69.18
9462;BME280;4769;42.660;23.262;2023-08-20T04:25:09;94225.97;;;23.41;68.41
9462;BME280;4769;42.660;23.262;2023-08-20T04:27:35;94230.41;;;23.37;69.19
9462;BME280;4769;42.660;23.262;2023-08-20T04:30:00;94215.22;;;23.32;69.19
9462;BME280;4769;42.660;23.262;2023-08-20T04:32:26;94221.72;;;23.40;68.98
9462;BME280;4769;42.660;23.262;2023-08-20T04:34:52;94234.69;;;23.55;69.00
9462;BME280;4769;42.660;23.262;2023-08-20T04:37:21;94235.53;;;22.91;69.66
9462;BME280;4769;42.660;23.262;2023-08-20T04:39:46;94251.13;;;22.63;71.52
9462;BME280;4769;42.660;23.262;2023-08-20T04:42:12;94236.72;;;22.29;72.58
9462;BME280;4769;42.660;23.262;2023-08-20T04:44:38;94227.84;;;22.20;73.12
9462;BME280;4769;42.660;23.262;2023-08-20T04:47:03;94239.09;;;22.52;72.63
9462;BME280;4769;42.660;23.262;2023-08-20T04:49:29;94240.53;;;22.67;71.37
9462;BME280;4769;42.660;23.262;2023-08-20T04:51:55;94239.53;;;23.02;70.81
9462;BME280;4769;42.660;23.262;2023-08-20T04:54:23;94240.06;;;23.29;69.68
9462;BME280;4769;42.660;23.262;2023-08-20T04:56:49;94229.97;;;23.52;68.05
9462;BME280;4769;42.660;23.262;2023-08-20T04:59:18;94227.72;;;23.79;67.35
9462;BME280;4769;42.660;23.262;2023-08-20T05:01:43;94242.41;;;24.08;66.32
9462;BME280;4769;42.660;23.262;2023-08-20T05:04:09;94242.38;;;24.25;65.97
9462;BME280;4769;42.660;23.262;2023-08-20T05:06:35;94236.81;;;24.30;65.24
9462;BME280;4769;42.660;23.262;2023-08-20T05:09:00;94237.22;;;24.49;64.85
9462;BME280;4769;42.660;23.262;2023-08-20T05:11:29;94233.50;;;24.70;63.95
9462;BME280;4769;42.660;23.262;2023-08-20T05:13:55;94243.81;;;24.77;63.24
9462;BME280;4769;42.660;23.262;2023-08-20T05:16:21;94239.16;;;24.86;63.38
9462;BME280;4769;42.660;23.262;2023-08-20T05:18:46;94239.97;;;25.07;62.71
9462;BME280;4769;42.660;23.262;2023-08-20T05:21:12;94245.38;;;25.07;62.42
9462;BME280;4769;42.660;23.262;2023-08-20T05:23:38;94246.06;;;25.24;62.14
9462;BME280;4769;42.660;23.262;2023-08-20T05:26:03;94244.50;;;25.44;61.47
9462;BME280;4769;42.660;23.262;2023-08-20T05:28:32;94246.78;;;25.62;60.45
9462;BME280;4769;42.660;23.262;2023-08-20T05:30:58;94250.00;;;25.56;60.54
9462;BME280;4769;42.660;23.262;2023-08-20T05:33:24;94240.56;;;25.62;60.94
9462;BME280;4769;42.660;23.262;2023-08-20T05:35:50;94257.19;;;25.93;59.46
9462;BME280;4769;42.660;23.262;2023-08-20T05:38:16;94249.25;;;26.08;58.70
9462;BME280;4769;42.660;23.262;2023-08-20T05:40:42;94254.22;;;26.18;58.17
9462;BME280;4769;42.660;23.262;2023-08-20T05:43:07;94257.88;;;26.34;57.64
9462;BME280;4769;42.660;23.262;2023-08-20T05:45:36;94257.22;;;26.49;57.65
9462;BME280;4769;42.660;23.262;2023-08-20T05:48:02;94250.47;;;26.55;56.64
9462;BME280;4769;42.660;23.262;2023-08-20T05:50:28;94257.94;;;26.58;57.17
9462;BME280;4769;42.660;23.262;2023-08-20T05:52:53;94256.63;;;26.64;57.63
9462;BME280;4769;42.660;23.262;2023-08-20T05:55:19;94243.53;;;26.66;56.45
9462;BME280;4769;42.660;23.262;2023-08-20T05:57:45;94251.13;;;26.85;56.41
9462;BME280;4769;42.660;23.262;2023-08-20T06:00:11;94252.09;;;26.68;57.37
9462;BME280;4769;42.660;23.262;2023-08-20T06:02:40;94257.66;;;26.96;56.46
9462;BME280;4769;42.660;23.262;2023-08-20T06:05:06;94246.59;;;27.25;55.70
9462;BME280;4769;42.660;23.262;2023-08-20T06:07:32;94247.13;;;27.42;54.86
9462;BME280;4769;42.660;23.262;2023-08-20T06:09:57;94244.97;;;27.48;54.61
9462;BME280;4769;42.660;23.262;2023-08-20T06:12:23;94247.69;;;27.48;54.25
9462;BME280;4769;42.660;23.262;2023-08-20T06:14:49;94258.09;;;27.46;54.64
9462;BME280;4769;42.660;23.262;2023-08-20T06:17:15;94250.72;;;27.58;54.09
9462;BME280;4769;42.660;23.262;2023-08-20T06:19:44;94257.78;;;27.75;53.67
9462;BME280;4769;42.660;23.262;2023-08-20T06:22:10;94251.69;;;27.78;53.62
9462;BME280;4769;42.660;23.262;2023-08-20T06:24:36;94265.31;;;27.93;52.75
9462;BME280;4769;42.660;23.262;2023-08-20T06:27:01;94260.84;;;28.13;52.30
9462;BME280;4769;42.660;23.262;2023-08-20T06:29:27;94258.91;;;28.13;52.00
9462;BME280;4769;42.660;23.262;2023-08-20T06:31:53;94260.84;;;28.13;51.73
9462;BME280;4769;42.660;23.262;2023-08-20T06:34:18;94257.09;;;28.33;51.25
9462;BME280;4769;42.660;23.262;2023-08-20T06:36:47;94251.75;;;28.64;50.83
9462;BME280;4769;42.660;23.262;2023-08-20T06:39:13;94257.75;;;28.85;49.97
9462;BME280;4769;42.660;23.262;2023-08-20T06:41:39;94255.91;;;29.04;49.35
9462;BME280;4769;42.660;23.262;2023-08-20T06:44:05;94256.41;;;29.25;48.65
9462;BME280;4769;42.660;23.262;2023-08-20T06:46:30;94253.06;;;29.32;48.99
9462;BME280;4769;42.660;23.262;2023-08-20T06:48:56;94251.97;;;29.52;48.58
9462;BME280;4769;42.660;23.262;2023-08-20T06:51:22;94255.59;;;29.56;47.33
9462;BME280;4769;42.660;23.262;2023-08-20T06:53:50;94255.59;;;29.56;47.31
9462;BME280;4769;42.660;23.262;2023-08-20T06:56:16;94264.34;;;29.65;47.72
9462;BME280;4769;42.660;23.262;2023-08-20T06:58:42;94253.09;;;29.66;46.79
9462;BME280;4769;42.660;23.262;2023-08-20T07:01:08;94258.84;;;29.80;46.84
9462;BME280;4769;42.660;23.262;2023-08-20T07:03:34;94257.13;;;29.91;44.86
9462;BME280;4769;42.660;23.262;2023-08-20T07:06:00;94252.22;;;30.16;44.84
9462;BME280;4769;42.660;23.262;2023-08-20T07:08:26;94249.53;;;30.00;44.43
9462;BME280;4769;42.660;23.262;2023-08-20T07:10:54;94240.91;;;30.14;43.51
9462;BME280;4769;42.660;23.262;2023-08-20T07:13:20;94252.09;;;29.93;42.96
9462;BME280;4769;42.660;23.262;2023-08-20T07:15:45;94247.16;;;29.80;42.76
9462;BME280;4769;42.660;23.262;2023-08-20T07:18:11;94251.81;;;29.79;43.14
9462;BME280;4769;42.660;23.262;2023-08-20T07:20:37;94249.31;;;30.28;42.72
9462;BME280;4769;42.660;23.262;2023-08-20T07:23:03;94253.19;;;30.27;41.76
9462;BME280;4769;42.660;23.262;2023-08-20T07:25:29;94253.47;;;30.41;41.40
9462;BME280;4769;42.660;23.262;2023-08-20T07:27:57;94243.34;;;30.60;40.61
9462;BME280;4769;42.660;23.262;2023-08-20T07:30:23;94250.97;;;30.96;40.46
9462;BME280;4769;42.660;23.262;2023-08-20T07:32:48;94247.81;;;31.17;39.66
9462;BME280;4769;42.660;23.262;2023-08-20T07:35:14;94253.66;;;31.41;39.21
9462;BME280;4769;42.660;23.262;2023-08-20T07:37:39;94252.75;;;31.30;39.18
9462;BME280;4769;42.660;23.262;2023-08-20T07:40:07;94253.91;;;31.59;38.78
9462;BME280;4769;42.660;23.262;2023-08-20T07:42:32;94256.75;;;31.40;39.00
9462;BME280;4769;42.660;23.262;2023-08-20T07:45:01;94247.53;;;31.48;38.54
9462;BME280;4769;42.660;23.262;2023-08-20T07:47:26;94262.41;;;31.54;38.62
9462;BME280;4769;42.660;23.262;2023-08-20T07:49:52;94270.25;;;31.82;38.07
9462;BME280;4769;42.660;23.262;2023-08-20T07:52:18;94256.66;;;31.59;38.19
9462;BME280;4769;42.660;23.262;2023-08-20T07:54:43;94262.75;;;31.75;38.29
9462;BME280;4769;42.660;23.262;2023-08-20T07:57:09;94252.41;;;31.88;37.92
9462;BME280;4769;42.660;23.262;2023-08-20T07:59:35;94255.16;;;31.91;37.50
9462;BME280;4769;42.660;23.262;2023-08-20T08:02:03;94253.94;;;31.33;37.63
9462;BME280;4769;42.660;23.262;2023-08-20T08:04:29;94267.13;;;31.31;37.61
9462;BME280;4769;42.660;23.262;2023-08-20T08:06:55;94259.59;;;31.47;37.61
9462;BME280;4769;42.660;23.262;2023-08-20T08:09:26;94262.72;;;31.49;38.06
9462;BME280;4769;42.660;23.262;2023-08-20T08:11:52;94255.59;;;31.67;37.76
9462;BME280;4769;42.660;23.262;2023-08-20T08:14:18;94257.25;;;32.01;37.21
9462;BME280;4769;42.660;23.262;2023-08-20T08:16:45;94254.97;;;32.36;36.43
9462;BME280;4769;42.660;23.262;2023-08-20T08:19:13;94250.50;;;32.54;36.26
9462;BME280;4769;42.660;23.262;2023-08-20T08:21:39;94260.72;;;32.61;35.00
9462;BME280;4769;42.660;23.262;2023-08-20T08:24:05;94251.31;;;32.95;34.59
9462;BME280;4769;42.660;23.262;2023-08-20T08:26:33;94257.34;;;33.18;34.32
9462;BME280;4769;42.660;23.262;2023-08-20T08:28:59;94251.88;;;33.14;33.03
9462;BME280;4769;42.660;23.262;2023-08-20T08:31:25;94246.91;;;32.83;32.77
9462;BME280;4769;42.660;23.262;2023-08-20T08:33:50;94243.78;;;32.81;32.55
9462;BME280;4769;42.660;23.262;2023-08-20T08:36:19;94250.31;;;32.77;32.94
9462;BME280;4769;42.660;23.262;2023-08-20T08:38:44;94252.44;;;32.90;32.19
9462;BME280;4769;42.660;23.262;2023-08-20T08:41:11;94255.34;;;32.35;32.63
9462;BME280;4769;42.660;23.262;2023-08-20T08:43:37;94252.06;;;32.22;32.48
9462;BME280;4769;42.660;23.262;2023-08-20T08:46:05;94252.75;;;32.45;32.15
9462;BME280;4769;42.660;23.262;2023-08-20T08:48:32;94239.34;;;32.70;31.48
9462;BME280;4769;42.660;23.262;2023-08-20T08:50:58;94252.34;;;33.23;30.90
9462;BME280;4769;42.660;23.262;2023-08-20T08:53:27;94253.31;;;33.01;30.91
9462;BME280;4769;42.660;23.262;2023-08-20T08:55:53;94243.25;;;33.12;30.74
9462;BME280;4769;42.660;23.262;2023-08-20T08:58:19;94251.34;;;33.45;30.32
9462;BME280;4769;42.660;23.262;2023-08-20T09:00:45;94253.34;;;33.55;29.81
9462;BME280;4769;42.660;23.262;2023-08-20T09:03:11;94258.41;;;33.46;30.13
9462;BME280;4769;42.660;23.262;2023-08-20T09:05:46;94250.50;;;33.95;29.46
9462;BME280;4769;42.660;23.262;2023-08-20T09:08:19;94254.03;;;33.99;28.38
9462;BME280;4769;42.660;23.262;2023-08-20T09:10:50;94245.03;;;33.95;27.77
9462;BME280;4769;42.660;23.262;2023-08-20T09:13:15;94255.53;;;33.90;27.55
9462;BME280;4769;42.660;23.262;2023-08-20T09:15:41;94247.34;;;33.90;26.98
9462;BME280;4769;42.660;23.262;2023-08-20T09:18:09;94246.38;;;34.29;27.02
9462;BME280;4769;42.660;23.262;2023-08-20T09:20:35;94240.25;;;34.67;26.61
9462;BME280;4769;42.660;23.262;2023-08-20T09:23:01;94238.31;;;34.99;26.48
9462;BME280;4769;42.660;23.262;2023-08-20T09:25:27;94244.19;;;34.91;26.42
9462;BME280;4769;42.660;23.262;2023-08-20T09:27:56;94236.78;;;34.91;26.13
9462;BME280;4769;42.660;23.262;2023-08-20T09:30:21;94235.59;;;34.99;26.59
9462;BME280;4769;42.660;23.262;2023-08-20T09:33:02;94245.78;;;35.02;26.79
9462;BME280;4769;42.660;23.262;2023-08-20T09:35:28;94234.41;;;34.97;27.04
9462;BME280;4769;42.660;23.262;2023-08-20T09:37:58;94235.22;;;35.39;26.13
9462;BME280;4769;42.660;23.262;2023-08-20T09:40:25;94237.94;;;35.15;26.12
9462;BME280;4769;42.660;23.262;2023-08-20T09:42:51;94233.25;;;35.01;25.94
9462;BME280;4769;42.660;23.262;2023-08-20T09:45:24;94226.63;;;35.37;26.15
9462;BME280;4769;42.660;23.262;2023-08-20T09:47:54;94221.13;;;35.41;25.99
9462;BME280;4769;42.660;23.262;2023-08-20T09:50:22;94223.47;;;34.90;26.76
9462;BME280;4769;42.660;23.262;2023-08-20T09:52:52;94220.31;;;35.23;26.04
9462;BME280;4769;42.660;23.262;2023-08-20T09:55:21;94224.25;;;34.97;26.02
9462;BME280;4769;42.660;23.262;2023-08-20T09:57:47;94220.31;;;35.02;25.66
9462;BME280;4769;42.660;23.262;2023-08-20T10:00:14;94217.59;;;35.05;25.41
9462;BME280;4769;42.660;23.262;2023-08-20T10:02:43;94228.91;;;34.72;25.94
9462;BME280;4769;42.660;23.262;2023-08-20T10:05:09;94228.34;;;34.25;26.75
9462;BME280;4769;42.660;23.262;2023-08-20T10:07:36;94220.06;;;34.07;27.20
9462;BME280;4769;42.660;23.262;2023-08-20T10:10:04;94224.50;;;34.33;27.13
9462;BME280;4769;42.660;23.262;2023-08-20T10:12:31;94228.00;;;34.33;26.97
9462;BME280;4769;42.660;23.262;2023-08-20T10:14:58;94223.38;;;34.69;26.80
9462;BME280;4769;42.660;23.262;2023-08-20T10:17:24;94239.84;;;34.72;26.45
9462;BME280;4769;42.660;23.262;2023-08-20T10:19:53;94228.03;;;34.51;26.56
9462;BME280;4769;42.660;23.262;2023-08-20T10:22:19;94230.13;;;35.17;25.78
9462;BME280;4769;42.660;23.262;2023-08-20T10:24:49;94230.09;;;34.82;25.54
9462;BME280;4769;42.660;23.262;2023-08-20T10:27:24;94232.41;;;34.76;25.68
9462;BME280;4769;42.660;23.262;2023-08-20T10:29:52;94220.72;;;35.14;24.32
9462;BME280;4769;42.660;23.262;2023-08-20T10:32:18;94230.13;;;35.38;23.52
9462;BME280;4769;42.660;23.262;2023-08-20T10:34:50;94225.44;;;35.52;23.48
9462;BME280;4769;42.660;23.262;2023-08-20T10:37:26;94222.66;;;35.77;23.39
9462;BME280;4769;42.660;23.262;2023-08-20T10:39:53;94217.94;;;35.77;24.29
9462;BME280;4769;42.660;23.262;2023-08-20T10:42:25;94208.16;;;35.76;24.21
9462;BME280;4769;42.660;23.262;2023-08-20T10:44:59;94212.88;;;34.92;25.46
9462;BME280;4769;42.660;23.262;2023-08-20T10:47:25;94212.06;;;34.77;25.80
9462;BME280;4769;42.660;23.262;2023-08-20T10:49:51;94208.16;;;35.62;24.80
9462;BME280;4769;42.660;23.262;2023-08-20T10:52:22;94201.78;;;36.00;24.73
9462;BME280;4769;42.660;23.262;2023-08-20T10:54:50;94181.84;;;35.72;24.43
9462;BME280;4769;42.660;23.262;2023-08-20T10:57:15;94198.31;;;35.89;24.03
9462;BME280;4769;42.660;23.262;2023-08-20T10:59:41;94197.78;;;36.26;23.93
9462;BME280;4769;42.660;23.262;2023-08-20T11:02:13;94193.59;;;36.76;23.34
9462;BME280;4769;42.660;23.262;2023-08-20T11:04:40;94197.66;;;36.50;23.79
9462;BME280;4769;42.660;23.262;2023-08-20T11:07:06;94182.09;;;36.91;23.16
9462;BME280;4769;42.660;23.262;2023-08-20T11:09:34;94180.66;;;37.24;22.19
9462;BME280;4769;42.660;23.262;2023-08-20T11:12:00;94192.59;;;37.51;21.57
9462;BME280;4769;42.660;23.262;2023-08-20T11:14:26;94193.38;;;37.51;21.50
9462;BME280;4769;42.660;23.262;2023-08-20T11:16:51;94191.81;;;37.91;21.86
9462;BME280;4769;42.660;23.262;2023-08-20T11:19:19;94181.63;;;37.00;22.53
9462;BME280;4769;42.660;23.262;2023-08-20T11:21:45;94176.56;;;36.95;23.01
9462;BME280;4769;42.660;23.262;2023-08-20T11:24:11;94177.59;;;37.15;22.90
9462;BME280;4769;42.660;23.262;2023-08-20T11:26:42;94184.28;;;37.58;22.54
9462;BME280;4769;42.660;23.262;2023-08-20T11:29:08;94173.28;;;38.58;21.74
9462;BME280;4769;42.660;23.262;2023-08-20T11:31:35;94177.44;;;39.46;20.86
9462;BME280;4769;42.660;23.262;2023-08-20T11:34:02;94174.03;;;38.89;20.64
9462;BME280;4769;42.660;23.262;2023-08-20T11:36:28;94160.91;;;39.20;20.52
9462;BME280;4769;42.660;23.262;2023-08-20T11:38:54;94161.81;;;39.59;20.13
9462;BME280;4769;42.660;23.262;2023-08-20T11:41:20;94174.78;;;38.89;20.31
9462;BME280;4769;42.660;23.262;2023-08-20T11:43:49;94174.41;;;38.31;21.22
9462;BME280;4769;42.660;23.262;2023-08-20T11:46:18;94160.47;;;38.45;21.35
9462;BME280;4769;42.660;23.262;2023-08-20T11:49:02;94164.25;;;39.31;20.79
9462;BME280;4769;42.660;23.262;2023-08-20T11:51:29;94160.47;;;39.67;20.72
9462;BME280;4769;42.660;23.262;2023-08-20T11:53:55;94163.78;;;39.82;20.44
9462;BME280;4769;42.660;23.262;2023-08-20T11:56:21;94158.50;;;40.46;20.05
9462;BME280;4769;42.660;23.262;2023-08-20T11:58:52;94156.69;;;40.00;20.29
9462;BME280;4769;42.660;23.262;2023-08-20T12:01:18;94156.28;;;39.82;20.18
9462;BME280;4769;42.660;23.262;2023-08-20T12:03:44;94157.41;;;39.85;20.16
9462;BME280;4769;42.660;23.262;2023-08-20T12:06:20;94160.94;;;40.05;19.89
9462;BME280;4769;42.660;23.262;2023-08-20T12:08:46;94151.94;;;40.01;19.80
9462;BME280;4769;42.660;23.262;2023-08-20T12:11:12;94147.41;;;39.91;19.87
9462;BME280;4769;42.660;23.262;2023-08-20T12:13:38;94135.31;;;40.24;19.77
9462;BME280;4769;42.660;23.262;2023-08-20T12:16:06;94138.81;;;39.66;20.23
9462;BME280;4769;42.660;23.262;2023-08-20T12:18:32;94140.22;;;40.16;20.04
9462;BME280;4769;42.660;23.262;2023-08-20T12:20:57;94134.69;;;40.52;19.40
9462;BME280;4769;42.660;23.262;2023-08-20T12:23:23;94134.31;;;39.95;19.98
9462;BME280;4769;42.660;23.262;2023-08-20T12:25:50;94132.00;;;40.48;19.63
9462;BME280;4769;42.660;23.262;2023-08-20T12:28:17;94127.50;;;40.74;19.40
9462;BME280;4769;42.660;23.262;2023-08-20T12:30:42;94137.56;;;40.29;19.67
9462;BME280;4769;42.660;23.262;2023-08-20T12:33:11;94133.59;;;41.01;19.09
9462;BME280;4769;42.660;23.262;2023-08-20T12:35:37;94133.34;;;40.76;19.59
9462;BME280;4769;42.660;23.262;2023-08-20T12:38:03;94120.34;;;41.08;19.07
9462;BME280;4769;42.660;23.262;2023-08-20T12:40:29;94116.50;;;41.79;18.82
9462;BME280;4769;42.660;23.262;2023-08-20T12:42:55;94124.22;;;41.87;18.94
9462;BME280;4769;42.660;23.262;2023-08-20T12:45:21;94120.16;;;42.17;18.49
9462;BME280;4769;42.660;23.262;2023-08-20T12:47:46;94108.53;;;41.52;18.95
9462;BME280;4769;42.660;23.262;2023-08-20T12:50:15;94117.13;;;41.10;19.77
9462;BME280;4769;42.660;23.262;2023-08-20T12:52:41;94115.97;;;40.40;20.44
9462;BME280;4769;42.660;23.262;2023-08-20T12:55:07;94109.34;;;41.21;19.73
9462;BME280;4769;42.660;23.262;2023-08-20T12:57:35;94106.84;;;40.94;19.52
9462;BME280;4769;42.660;23.262;2023-08-20T13:00:03;94111.41;;;41.17;19.43
9462;BME280;4769;42.660;23.262;2023-08-20T13:02:29;94115.03;;;41.14;19.33
9462;BME280;4769;42.660;23.262;2023-08-20T13:04:55;94112.66;;;41.89;18.72
9462;BME280;4769;42.660;23.262;2023-08-20T13:07:25;94106.91;;;41.83;18.73